sensor_id;sensor_type;location;lat;lon;timestamp;P1;durP1;ratioP1;P2;durP2;ratioP2
18905;SDS011;9585;51.018;4.282;2022-09-13T00:00:43;3.05;;;2.58;;
18905;SDS011;9585;51.018;4.282;2022-09-13T00:03:11;2.78;;;2.53;;
18905;SDS011;9585;51.018;4.282;2022-09-13T00:05:38;3.15;;;2.72;;
18905;SDS011;9585;51.018;4.282;2022-09-13T00:08:06;3.08;;;2.40;;
18905;SDS011;9585;51.018;4.282;2022-09-13T00:10:33;2.67;;;2.20;;
18905;SDS011;9585;51.018;4.282;2022-09-13T00:13:02;3.35;;;2.38;;
18905;SDS011;9585;51.018;4.282;2022-09-13T00:15:31;2.67;;;2.40;;
18905;SDS011;9585;51.018;4.282;2022-09-13T00:17:59;3.55;;;2.38;;
18905;SDS011;9585;51.018;4.282;2022-09-13T00:20:28;3.55;;;2.58;;
18905;SDS011;9585;51.018;4.282;2022-09-13T00:22:55;2.60;;;2.40;;
18905;SDS011;9585;51.018;4.282;2022-09-13T00:25:22;3.25;;;2.83;;
18905;SDS011;9585;51.018;4.282;2022-09-13T00:27:50;4.57;;;2.95;;
18905;SDS011;9585;51.018;4.282;2022-09-13T00:30:17;3.00;;;2.60;;
18905;SDS011;9585;51.018;4.282;2022-09-13T00:32:46;3.08;;;2.53;;
18905;SDS011;9585;51.018;4.282;2022-09-13T00:35:14;2.20;;;2.00;;
18905;SDS011;9585;51.018;4.282;2022-09-13T00:37:41;2.40;;;2.20;;
18905;SDS011;9585;51.018;4.282;2022-09-13T00:40:09;2.50;;;2.30;;
18905;SDS011;9585;51.018;4.282;2022-09-13T00:42:36;2.45;;;2.25;;
18905;SDS011;9585;51.018;4.282;2022-09-13T00:45:13;2.20;;;2.00;;
18905;SDS011;9585;51.018;4.282;2022-09-13T00:47:42;2.10;;;1.80;;
18905;SDS011;9585;51.018;4.282;2022-09-13T00:50:17;3.65;;;3.35;;
18905;SDS011;9585;51.018;4.282;2022-09-13T00:52:48;3.75;;;3.22;;
18905;SDS011;9585;51.018;4.282;2022-09-13T00:55:21;3.17;;;2.80;;
18905;SDS011;9585;51.018;4.282;2022-09-13T00:57:53;2.80;;;2.60;;
18905;SDS011;9585;51.018;4.282;2022-09-13T01:00:25;3.58;;;2.53;;
18905;SDS011;9585;51.018;4.282;2022-09-13T01:02:55;2.78;;;2.20;;
18905;SDS011;9585;51.018;4.282;2022-09-13T01:05:25;2.50;;;2.10;;
18905;SDS011;9585;51.018;4.282;2022-09-13T01:07:55;2.40;;;2.00;;
18905;SDS011;9585;51.018;4.282;2022-09-13T01:10:24;2.90;;;2.55;;
18905;SDS011;9585;51.018;4.282;2022-09-13T01:12:53;2.20;;;2.00;;
18905;SDS011;9585;51.018;4.282;2022-09-13T01:15:26;2.60;;;2.15;;
18905;SDS011;9585;51.018;4.282;2022-09-13T01:17:55;2.25;;;2.05;;
18905;SDS011;9585;51.018;4.282;2022-09-13T01:20:25;2.15;;;1.98;;
18905;SDS011;9585;51.018;4.282;2022-09-13T01:23:26;3.00;;;2.67;;
18905;SDS011;9585;51.018;4.282;2022-09-13T01:26:46;3.88;;;2.70;;
18905;SDS011;9585;51.018;4.282;2022-09-13T01:35:53;2.95;;;2.20;;
18905;SDS011;9585;51.018;4.282;2022-09-13T01:38:38;2.40;;;2.20;;
18905;SDS011;9585;51.018;4.282;2022-09-13T01:41:17;2.50;;;2.30;;
18905;SDS011;9585;51.018;4.282;2022-09-13T01:43:57;2.60;;;2.40;;
18905;SDS011;9585;51.018;4.282;2022-09-13T01:46:35;2.40;;;2.20;;
18905;SDS011;9585;51.018;4.282;2022-09-13T01:49:10;2.72;;;2.38;;
18905;SDS011;9585;51.018;4.282;2022-09-13T01:51:44;4.80;;;2.30;;
18905;SDS011;9585;51.018;4.282;2022-09-13T01:54:17;3.13;;;2.50;;
18905;SDS011;9585;51.018;4.282;2022-09-13T01:56:52;2.70;;;2.50;;
18905;SDS011;9585;51.018;4.282;2022-09-13T01:59:26;3.63;;;2.40;;
18905;SDS011;9585;51.018;4.282;2022-09-13T02:02:02;3.05;;;2.35;;
18905;SDS011;9585;51.018;4.282;2022-09-13T02:04:36;3.22;;;2.30;;
18905;SDS011;9585;51.018;4.282;2022-09-13T02:07:08;3.35;;;2.65;;
18905;SDS011;9585;51.018;4.282;2022-09-13T02:09:40;2.55;;;2.22;;
18905;SDS011;9585;51.018;4.282;2022-09-13T02:12:12;4.10;;;2.58;;
18905;SDS011;9585;51.018;4.282;2022-09-13T02:14:43;2.50;;;2.30;;
18905;SDS011;9585;51.018;4.282;2022-09-13T02:17:17;2.78;;;1.92;;
18905;SDS011;9585;51.018;4.282;2022-09-13T02:19:50;2.60;;;2.40;;
18905;SDS011;9585;51.018;4.282;2022-09-13T02:22:24;2.03;;;1.88;;
18905;SDS011;9585;51.018;4.282;2022-09-13T02:24:57;2.30;;;2.10;;
18905;SDS011;9585;51.018;4.282;2022-09-13T02:27:29;2.90;;;2.10;;
18905;SDS011;9585;51.018;4.282;2022-09-13T02:30:00;2.13;;;1.92;;
18905;SDS011;9585;51.018;4.282;2022-09-13T02:32:30;2.83;;;2.60;;
18905;SDS011;9585;51.018;4.282;2022-09-13T02:35:04;2.88;;;2.53;;
18905;SDS011;9585;51.018;4.282;2022-09-13T02:37:35;3.05;;;2.30;;
18905;SDS011;9585;51.018;4.282;2022-09-13T02:40:06;2.58;;;2.25;;
18905;SDS011;9585;51.018;4.282;2022-09-13T02:42:39;2.42;;;2.22;;
18905;SDS011;9585;51.018;4.282;2022-09-13T02:45:09;4.75;;;2.45;;
18905;SDS011;9585;51.018;4.282;2022-09-13T02:47:41;2.70;;;2.42;;
18905;SDS011;9585;51.018;4.282;2022-09-13T02:50:18;4.35;;;2.25;;
18905;SDS011;9585;51.018;4.282;2022-09-13T02:52:57;2.92;;;2.45;;
18905;SDS011;9585;51.018;4.282;2022-09-13T02:55:37;3.17;;;2.83;;
18905;SDS011;9585;51.018;4.282;2022-09-13T02:58:10;2.78;;;2.58;;
18905;SDS011;9585;51.018;4.282;2022-09-13T03:00:45;2.72;;;2.45;;
18905;SDS011;9585;51.018;4.282;2022-09-13T03:03:13;2.40;;;2.20;;
18905;SDS011;9585;51.018;4.282;2022-09-13T03:05:43;2.55;;;2.35;;
18905;SDS011;9585;51.018;4.282;2022-09-13T03:08:11;2.72;;;2.35;;
18905;SDS011;9585;51.018;4.282;2022-09-13T03:10:45;2.40;;;2.20;;
18905;SDS011;9585;51.018;4.282;2022-09-13T03:13:32;2.33;;;2.13;;
18905;SDS011;9585;51.018;4.282;2022-09-13T03:16:11;2.30;;;2.10;;
18905;SDS011;9585;51.018;4.282;2022-09-13T03:18:51;2.50;;;2.30;;
18905;SDS011;9585;51.018;4.282;2022-09-13T03:21:37;2.58;;;2.38;;
18905;SDS011;9585;51.018;4.282;2022-09-13T03:24:21;3.03;;;2.25;;
18905;SDS011;9585;51.018;4.282;2022-09-13T03:26:55;2.35;;;2.10;;
18905;SDS011;9585;51.018;4.282;2022-09-13T03:29:37;2.38;;;2.03;;
18905;SDS011;9585;51.018;4.282;2022-09-13T03:32:17;2.33;;;2.13;;
18905;SDS011;9585;51.018;4.282;2022-09-13T03:34:50;2.10;;;1.90;;
18905;SDS011;9585;51.018;4.282;2022-09-13T03:37:26;2.30;;;1.88;;
18905;SDS011;9585;51.018;4.282;2022-09-13T03:39:58;2.13;;;1.92;;
18905;SDS011;9585;51.018;4.282;2022-09-13T03:42:31;2.03;;;1.83;;
18905;SDS011;9585;51.018;4.282;2022-09-13T03:45:03;2.10;;;1.90;;
18905;SDS011;9585;51.018;4.282;2022-09-13T03:47:33;1.92;;;1.70;;
18905;SDS011;9585;51.018;4.282;2022-09-13T03:50:04;2.00;;;1.90;;
18905;SDS011;9585;51.018;4.282;2022-09-13T03:52:35;2.50;;;2.30;;
18905;SDS011;9585;51.018;4.282;2022-09-13T03:55:03;2.78;;;2.13;;
18905;SDS011;9585;51.018;4.282;2022-09-13T03:57:30;2.50;;;2.20;;
18905;SDS011;9585;51.018;4.282;2022-09-13T03:59:58;2.80;;;2.40;;
18905;SDS011;9585;51.018;4.282;2022-09-13T04:02:26;2.05;;;1.88;;
18905;SDS011;9585;51.018;4.282;2022-09-13T04:04:54;2.30;;;2.10;;
18905;SDS011;9585;51.018;4.282;2022-09-13T04:07:22;2.30;;;1.80;;
18905;SDS011;9585;51.018;4.282;2022-09-13T04:09:52;2.40;;;2.20;;
18905;SDS011;9585;51.018;4.282;2022-09-13T04:12:20;2.33;;;2.08;;
18905;SDS011;9585;51.018;4.282;2022-09-13T04:14:48;3.42;;;2.38;;
18905;SDS011;9585;51.018;4.282;2022-09-13T04:17:16;2.72;;;2.40;;
18905;SDS011;9585;51.018;4.282;2022-09-13T04:19:43;2.65;;;2.42;;
18905;SDS011;9585;51.018;4.282;2022-09-13T04:22:11;2.72;;;2.38;;
18905;SDS011;9585;51.018;4.282;2022-09-13T04:24:38;3.65;;;2.60;;
18905;SDS011;9585;51.018;4.282;2022-09-13T04:27:09;3.00;;;2.50;;
18905;SDS011;9585;51.018;4.282;2022-09-13T04:29:36;3.22;;;2.38;;
18905;SDS011;9585;51.018;4.282;2022-09-13T04:32:04;2.40;;;2.20;;
18905;SDS011;9585;51.018;4.282;2022-09-13T04:34:31;2.55;;;2.30;;
18905;SDS011;9585;51.018;4.282;2022-09-13T04:36:58;2.45;;;1.90;;
18905;SDS011;9585;51.018;4.282;2022-09-13T04:39:26;3.47;;;2.65;;
18905;SDS011;9585;51.018;4.282;2022-09-13T04:41:53;4.00;;;2.90;;
18905;SDS011;9585;51.018;4.282;2022-09-13T04:44:22;2.60;;;2.40;;
18905;SDS011;9585;51.018;4.282;2022-09-13T04:46:49;2.65;;;2.40;;
18905;SDS011;9585;51.018;4.282;2022-09-13T04:49:17;2.25;;;1.92;;
18905;SDS011;9585;51.018;4.282;2022-09-13T04:51:44;3.50;;;2.63;;
18905;SDS011;9585;51.018;4.282;2022-09-13T04:54:12;5.03;;;2.97;;
18905;SDS011;9585;51.018;4.282;2022-09-13T04:56:39;3.35;;;3.05;;
18905;SDS011;9585;51.018;4.282;2022-09-13T04:59:06;3.78;;;2.67;;
18905;SDS011;9585;51.018;4.282;2022-09-13T05:01:36;3.58;;;2.80;;
18905;SDS011;9585;51.018;4.282;2022-09-13T05:04:04;3.25;;;2.80;;
18905;SDS011;9585;51.018;4.282;2022-09-13T05:06:32;2.47;;;2.28;;
18905;SDS011;9585;51.018;4.282;2022-09-13T05:09:00;3.15;;;2.33;;
18905;SDS011;9585;51.018;4.282;2022-09-13T05:11:27;2.72;;;2.53;;
18905;SDS011;9585;51.018;4.282;2022-09-13T05:13:56;2.42;;;2.20;;
18905;SDS011;9585;51.018;4.282;2022-09-13T05:16:25;2.72;;;2.17;;
18905;SDS011;9585;51.018;4.282;2022-09-13T05:18:57;2.40;;;2.05;;
18905;SDS011;9585;51.018;4.282;2022-09-13T05:21:28;2.00;;;1.80;;
18905;SDS011;9585;51.018;4.282;2022-09-13T05:23:56;2.20;;;2.00;;
18905;SDS011;9585;51.018;4.282;2022-09-13T05:26:25;2.50;;;2.30;;
18905;SDS011;9585;51.018;4.282;2022-09-13T05:28:55;2.47;;;2.28;;
18905;SDS011;9585;51.018;4.282;2022-09-13T05:31:23;3.70;;;2.60;;
18905;SDS011;9585;51.018;4.282;2022-09-13T05:33:52;3.17;;;2.63;;
18905;SDS011;9585;51.018;4.282;2022-09-13T05:36:22;3.13;;;2.85;;
18905;SDS011;9585;51.018;4.282;2022-09-13T05:38:51;2.35;;;2.15;;
18905;SDS011;9585;51.018;4.282;2022-09-13T05:41:19;2.10;;;1.90;;
18905;SDS011;9585;51.018;4.282;2022-09-13T05:43:49;3.42;;;2.60;;
18905;SDS011;9585;51.018;4.282;2022-09-13T05:46:17;3.40;;;2.60;;
18905;SDS011;9585;51.018;4.282;2022-09-13T05:48:45;2.78;;;2.30;;
18905;SDS011;9585;51.018;4.282;2022-09-13T05:51:14;2.67;;;2.47;;
18905;SDS011;9585;51.018;4.282;2022-09-13T05:53:43;2.28;;;2.10;;
18905;SDS011;9585;51.018;4.282;2022-09-13T05:56:13;2.47;;;2.28;;
18905;SDS011;9585;51.018;4.282;2022-09-13T05:58:41;3.33;;;2.90;;
18905;SDS011;9585;51.018;4.282;2022-09-13T06:01:10;3.20;;;2.40;;
18905;SDS011;9585;51.018;4.282;2022-09-13T06:03:38;2.60;;;2.40;;
18905;SDS011;9585;51.018;4.282;2022-09-13T06:06:05;2.70;;;2.40;;
18905;SDS011;9585;51.018;4.282;2022-09-13T06:08:33;2.97;;;2.35;;
18905;SDS011;9585;51.018;4.282;2022-09-13T06:11:03;3.40;;;2.28;;
18905;SDS011;9585;51.018;4.282;2022-09-13T06:13:32;2.60;;;2.40;;
18905;SDS011;9585;51.018;4.282;2022-09-13T06:16:00;3.00;;;2.70;;
18905;SDS011;9585;51.018;4.282;2022-09-13T06:18:29;2.65;;;2.45;;
18905;SDS011;9585;51.018;4.282;2022-09-13T06:20:57;2.40;;;2.20;;
18905;SDS011;9585;51.018;4.282;2022-09-13T06:23:25;2.30;;;2.10;;
18905;SDS011;9585;51.018;4.282;2022-09-13T06:26:00;2.42;;;2.22;;
18905;SDS011;9585;51.018;4.282;2022-09-13T06:28:30;2.92;;;2.50;;
18905;SDS011;9585;51.018;4.282;2022-09-13T06:31:00;2.83;;;2.45;;
18905;SDS011;9585;51.018;4.282;2022-09-13T06:33:28;2.75;;;2.40;;
18905;SDS011;9585;51.018;4.282;2022-09-13T06:35:58;2.67;;;2.42;;
18905;SDS011;9585;51.018;4.282;2022-09-13T06:38:26;4.00;;;2.70;;
18905;SDS011;9585;51.018;4.282;2022-09-13T06:41:00;3.70;;;2.85;;
18905;SDS011;9585;51.018;4.282;2022-09-13T06:43:31;4.40;;;2.97;;
18905;SDS011;9585;51.018;4.282;2022-09-13T06:45:59;9.32;;;3.70;;
18905;SDS011;9585;51.018;4.282;2022-09-13T06:48:29;4.82;;;2.75;;
18905;SDS011;9585;51.018;4.282;2022-09-13T06:50:58;3.25;;;2.90;;
18905;SDS011;9585;51.018;4.282;2022-09-13T06:53:26;3.53;;;2.78;;
18905;SDS011;9585;51.018;4.282;2022-09-13T06:56:00;3.25;;;2.72;;
18905;SDS011;9585;51.018;4.282;2022-09-13T06:58:30;4.50;;;3.05;;
18905;SDS011;9585;51.018;4.282;2022-09-13T07:01:05;2.90;;;2.67;;
18905;SDS011;9585;51.018;4.282;2022-09-13T07:03:34;2.70;;;2.50;;
18905;SDS011;9585;51.018;4.282;2022-09-13T07:06:05;5.55;;;2.90;;
18905;SDS011;9585;51.018;4.282;2022-09-13T07:08:34;6.40;;;3.30;;
18905;SDS011;9585;51.018;4.282;2022-09-13T07:11:03;4.10;;;2.92;;
18905;SDS011;9585;51.018;4.282;2022-09-13T07:13:31;5.18;;;2.95;;
18905;SDS011;9585;51.018;4.282;2022-09-13T07:16:00;4.50;;;2.83;;
18905;SDS011;9585;51.018;4.282;2022-09-13T07:18:29;3.05;;;2.72;;
18905;SDS011;9585;51.018;4.282;2022-09-13T07:20:57;3.28;;;2.35;;
18905;SDS011;9585;51.018;4.282;2022-09-13T07:23:27;3.40;;;3.08;;
18905;SDS011;9585;51.018;4.282;2022-09-13T07:25:55;2.20;;;2.00;;
18905;SDS011;9585;51.018;4.282;2022-09-13T07:28:28;3.50;;;2.30;;
18905;SDS011;9585;51.018;4.282;2022-09-13T07:31:02;5.18;;;2.80;;
18905;SDS011;9585;51.018;4.282;2022-09-13T07:33:31;4.63;;;2.53;;
18905;SDS011;9585;51.018;4.282;2022-09-13T07:35:58;2.88;;;2.20;;
18905;SDS011;9585;51.018;4.282;2022-09-13T07:38:30;2.95;;;2.28;;
18905;SDS011;9585;51.018;4.282;2022-09-13T07:40:59;4.97;;;2.60;;
18905;SDS011;9585;51.018;4.282;2022-09-13T07:43:28;7.70;;;3.13;;
18905;SDS011;9585;51.018;4.282;2022-09-13T07:45:55;4.93;;;2.67;;
18905;SDS011;9585;51.018;4.282;2022-09-13T07:48:23;5.57;;;3.00;;
18905;SDS011;9585;51.018;4.282;2022-09-13T07:50:55;4.10;;;2.90;;
18905;SDS011;9585;51.018;4.282;2022-09-13T07:53:23;6.55;;;3.38;;
18905;SDS011;9585;51.018;4.282;2022-09-13T07:55:51;6.80;;;3.17;;
18905;SDS011;9585;51.018;4.282;2022-09-13T07:58:18;3.65;;;3.00;;
18905;SDS011;9585;51.018;4.282;2022-09-13T08:00:47;4.78;;;3.70;;
18905;SDS011;9585;51.018;4.282;2022-09-13T08:03:15;4.45;;;3.13;;
18905;SDS011;9585;51.018;4.282;2022-09-13T08:05:43;5.35;;;3.10;;
18905;SDS011;9585;51.018;4.282;2022-09-13T08:08:10;7.00;;;4.20;;
18905;SDS011;9585;51.018;4.282;2022-09-13T08:10:37;4.00;;;3.30;;
18905;SDS011;9585;51.018;4.282;2022-09-13T08:13:05;4.93;;;3.53;;
18905;SDS011;9585;51.018;4.282;2022-09-13T08:15:32;6.30;;;4.03;;
18905;SDS011;9585;51.018;4.282;2022-09-13T08:18:01;8.10;;;4.60;;
18905;SDS011;9585;51.018;4.282;2022-09-13T08:20:32;5.78;;;4.18;;
18905;SDS011;9585;51.018;4.282;2022-09-13T08:23:01;6.32;;;4.03;;
18905;SDS011;9585;51.018;4.282;2022-09-13T08:25:30;7.15;;;4.90;;
18905;SDS011;9585;51.018;4.282;2022-09-13T08:27:59;5.00;;;3.83;;
18905;SDS011;9585;51.018;4.282;2022-09-13T08:30:26;4.90;;;4.50;;
18905;SDS011;9585;51.018;4.282;2022-09-13T08:32:57;6.55;;;4.93;;
18905;SDS011;9585;51.018;4.282;2022-09-13T08:35:28;5.38;;;4.55;;
18905;SDS011;9585;51.018;4.282;2022-09-13T08:37:55;4.82;;;4.32;;
18905;SDS011;9585;51.018;4.282;2022-09-13T08:40:23;6.93;;;4.95;;
18905;SDS011;9585;51.018;4.282;2022-09-13T08:42:55;5.28;;;4.00;;
18905;SDS011;9585;51.018;4.282;2022-09-13T08:45:27;5.20;;;4.70;;
18905;SDS011;9585;51.018;4.282;2022-09-13T08:47:55;5.68;;;4.30;;
18905;SDS011;9585;51.018;4.282;2022-09-13T08:50:30;5.28;;;4.78;;
18905;SDS011;9585;51.018;4.282;2022-09-13T08:53:07;4.40;;;3.72;;
18905;SDS011;9585;51.018;4.282;2022-09-13T08:55:49;5.05;;;4.10;;
18905;SDS011;9585;51.018;4.282;2022-09-13T08:58:27;5.70;;;4.85;;
18905;SDS011;9585;51.018;4.282;2022-09-13T09:01:06;4.97;;;4.47;;
18905;SDS011;9585;51.018;4.282;2022-09-13T09:03:40;8.80;;;4.95;;
18905;SDS011;9585;51.018;4.282;2022-09-13T09:06:14;5.35;;;3.95;;
18905;SDS011;9585;51.018;4.282;2022-09-13T09:08:43;4.45;;;3.92;;
18905;SDS011;9585;51.018;4.282;2022-09-13T09:11:18;5.65;;;3.92;;
18905;SDS011;9585;51.018;4.282;2022-09-13T09:13:54;5.28;;;3.30;;
18905;SDS011;9585;51.018;4.282;2022-09-13T09:16:28;6.00;;;4.30;;
18905;SDS011;9585;51.018;4.282;2022-09-13T09:19:03;6.18;;;4.45;;
18905;SDS011;9585;51.018;4.282;2022-09-13T09:21:39;4.60;;;3.60;;
18905;SDS011;9585;51.018;4.282;2022-09-13T09:24:08;5.47;;;4.47;;
18905;SDS011;9585;51.018;4.282;2022-09-13T09:26:44;4.25;;;3.85;;
18905;SDS011;9585;51.018;4.282;2022-09-13T09:29:14;4.78;;;3.08;;
18905;SDS011;9585;51.018;4.282;2022-09-13T09:31:47;6.45;;;4.40;;
18905;SDS011;9585;51.018;4.282;2022-09-13T09:34:38;5.38;;;4.60;;
18905;SDS011;9585;51.018;4.282;2022-09-13T09:37:18;3.58;;;3.13;;
18905;SDS011;9585;51.018;4.282;2022-09-13T09:39:47;4.57;;;3.53;;
18905;SDS011;9585;51.018;4.282;2022-09-13T09:42:16;6.95;;;5.07;;
18905;SDS011;9585;51.018;4.282;2022-09-13T09:44:47;6.38;;;4.80;;
18905;SDS011;9585;51.018;4.282;2022-09-13T09:47:21;6.07;;;4.57;;
18905;SDS011;9585;51.018;4.282;2022-09-13T09:49:52;8.10;;;5.28;;
18905;SDS011;9585;51.018;4.282;2022-09-13T09:52:48;6.70;;;4.43;;
18905;SDS011;9585;51.018;4.282;2022-09-13T09:55:23;6.43;;;4.03;;
18905;SDS011;9585;51.018;4.282;2022-09-13T09:57:54;6.70;;;4.40;;
18905;SDS011;9585;51.018;4.282;2022-09-13T10:00:23;4.15;;;2.90;;
18905;SDS011;9585;51.018;4.282;2022-09-13T10:02:54;4.35;;;2.88;;
18905;SDS011;9585;51.018;4.282;2022-09-13T10:05:24;4.13;;;3.10;;
18905;SDS011;9585;51.018;4.282;2022-09-13T10:07:55;5.63;;;3.22;;
18905;SDS011;9585;51.018;4.282;2022-09-13T10:10:26;4.13;;;3.00;;
18905;SDS011;9585;51.018;4.282;2022-09-13T10:13:01;5.28;;;3.03;;
18905;SDS011;9585;51.018;4.282;2022-09-13T10:15:31;3.10;;;2.20;;
18905;SDS011;9585;51.018;4.282;2022-09-13T10:18:00;4.28;;;2.83;;
18905;SDS011;9585;51.018;4.282;2022-09-13T10:20:31;4.25;;;2.58;;
18905;SDS011;9585;51.018;4.282;2022-09-13T10:23:11;5.10;;;2.30;;
18905;SDS011;9585;51.018;4.282;2022-09-13T10:25:54;3.63;;;2.63;;
18905;SDS011;9585;51.018;4.282;2022-09-13T10:28:34;3.50;;;2.67;;
18905;SDS011;9585;51.018;4.282;2022-09-13T10:31:07;3.95;;;2.38;;
18905;SDS011;9585;51.018;4.282;2022-09-13T10:33:38;3.92;;;2.55;;
18905;SDS011;9585;51.018;4.282;2022-09-13T10:36:11;5.38;;;3.15;;
18905;SDS011;9585;51.018;4.282;2022-09-13T10:38:44;3.65;;;2.65;;
18905;SDS011;9585;51.018;4.282;2022-09-13T10:41:23;4.30;;;3.40;;
18905;SDS011;9585;51.018;4.282;2022-09-13T10:43:56;5.82;;;3.38;;
18905;SDS011;9585;51.018;4.282;2022-09-13T10:46:24;7.28;;;3.58;;
18905;SDS011;9585;51.018;4.282;2022-09-13T10:48:55;4.45;;;2.55;;
18905;SDS011;9585;51.018;4.282;2022-09-13T10:51:33;6.32;;;2.60;;
18905;SDS011;9585;51.018;4.282;2022-09-13T10:54:07;5.75;;;3.67;;
18905;SDS011;9585;51.018;4.282;2022-09-13T10:56:42;4.13;;;3.25;;
18905;SDS011;9585;51.018;4.282;2022-09-13T10:59:13;5.13;;;3.03;;
18905;SDS011;9585;51.018;4.282;2022-09-13T11:01:46;5.63;;;3.08;;
18905;SDS011;9585;51.018;4.282;2022-09-13T11:07:38;5.07;;;3.78;;
18905;SDS011;9585;51.018;4.282;2022-09-13T11:10:19;3.92;;;3.35;;
18905;SDS011;9585;51.018;4.282;2022-09-13T11:12:56;5.53;;;2.85;;
18905;SDS011;9585;51.018;4.282;2022-09-13T11:15:38;4.13;;;2.30;;
18905;SDS011;9585;51.018;4.282;2022-09-13T11:21:27;4.88;;;3.42;;
18905;SDS011;9585;51.018;4.282;2022-09-13T11:24:16;4.78;;;3.42;;
18905;SDS011;9585;51.018;4.282;2022-09-13T11:27:09;3.97;;;3.05;;
18905;SDS011;9585;51.018;4.282;2022-09-13T11:30:02;5.95;;;3.80;;
18905;SDS011;9585;51.018;4.282;2022-09-13T11:32:45;5.43;;;3.63;;
18905;SDS011;9585;51.018;4.282;2022-09-13T11:35:57;7.70;;;4.05;;
18905;SDS011;9585;51.018;4.282;2022-09-13T11:38:49;4.60;;;3.40;;
18905;SDS011;9585;51.018;4.282;2022-09-13T11:41:36;4.43;;;2.13;;
18905;SDS011;9585;51.018;4.282;2022-09-13T11:44:27;4.05;;;2.97;;
18905;SDS011;9585;51.018;4.282;2022-09-13T11:47:11;3.95;;;2.55;;
18905;SDS011;9585;51.018;4.282;2022-09-13T11:49:50;6.53;;;3.90;;
18905;SDS011;9585;51.018;4.282;2022-09-13T11:52:36;4.78;;;3.28;;
18905;SDS011;9585;51.018;4.282;2022-09-13T11:55:13;3.58;;;2.53;;
18905;SDS011;9585;51.018;4.282;2022-09-13T11:57:50;3.35;;;2.28;;
18905;SDS011;9585;51.018;4.282;2022-09-13T12:00:23;3.50;;;2.10;;
18905;SDS011;9585;51.018;4.282;2022-09-13T12:02:59;6.07;;;3.17;;
18905;SDS011;9585;51.018;4.282;2022-09-13T12:05:31;4.53;;;3.20;;
18905;SDS011;9585;51.018;4.282;2022-09-13T12:08:05;4.68;;;3.00;;
18905;SDS011;9585;51.018;4.282;2022-09-13T12:10:49;4.28;;;2.80;;
18905;SDS011;9585;51.018;4.282;2022-09-13T12:13:23;2.92;;;2.20;;
18905;SDS011;9585;51.018;4.282;2022-09-13T12:15:55;3.17;;;1.90;;
18905;SDS011;9585;51.018;4.282;2022-09-13T12:18:27;4.07;;;2.53;;
18905;SDS011;9585;51.018;4.282;2022-09-13T12:20:57;6.00;;;2.83;;
18905;SDS011;9585;51.018;4.282;2022-09-13T12:23:32;3.95;;;3.00;;
18905;SDS011;9585;51.018;4.282;2022-09-13T12:26:04;4.88;;;3.50;;
18905;SDS011;9585;51.018;4.282;2022-09-13T12:28:36;3.33;;;2.47;;
18905;SDS011;9585;51.018;4.282;2022-09-13T12:31:11;4.78;;;2.63;;
18905;SDS011;9585;51.018;4.282;2022-09-13T12:33:44;2.60;;;2.15;;
18905;SDS011;9585;51.018;4.282;2022-09-13T12:36:20;2.97;;;1.90;;
18905;SDS011;9585;51.018;4.282;2022-09-13T12:39:12;2.70;;;2.10;;
18905;SDS011;9585;51.018;4.282;2022-09-13T12:41:55;2.95;;;1.95;;
18905;SDS011;9585;51.018;4.282;2022-09-13T12:44:39;6.10;;;2.42;;
18905;SDS011;9585;51.018;4.282;2022-09-13T12:47:30;3.90;;;1.67;;
18905;SDS011;9585;51.018;4.282;2022-09-13T12:56:38;2.95;;;1.92;;
18905;SDS011;9585;51.018;4.282;2022-09-13T12:59:17;2.90;;;1.80;;
18905;SDS011;9585;51.018;4.282;2022-09-13T13:01:52;1.92;;;1.63;;
18905;SDS011;9585;51.018;4.282;2022-09-13T13:04:22;2.17;;;1.70;;
18905;SDS011;9585;51.018;4.282;2022-09-13T13:06:53;2.92;;;2.05;;
18905;SDS011;9585;51.018;4.282;2022-09-13T13:09:27;5.10;;;2.53;;
18905;SDS011;9585;51.018;4.282;2022-09-13T13:12:02;3.30;;;2.33;;
18905;SDS011;9585;51.018;4.282;2022-09-13T13:14:44;2.72;;;1.98;;
18905;SDS011;9585;51.018;4.282;2022-09-13T13:25:58;3.58;;;2.63;;
18905;SDS011;9585;51.018;4.282;2022-09-13T13:28:48;2.85;;;2.53;;
18905;SDS011;9585;51.018;4.282;2022-09-13T13:31:34;3.55;;;2.80;;
18905;SDS011;9585;51.018;4.282;2022-09-13T13:34:27;3.53;;;2.78;;
18905;SDS011;9585;51.018;4.282;2022-09-13T13:40:36;3.47;;;2.70;;
18905;SDS011;9585;51.018;4.282;2022-09-13T13:43:27;3.85;;;3.38;;
18905;SDS011;9585;51.018;4.282;2022-09-13T13:48:55;3.88;;;3.05;;
18905;SDS011;9585;51.018;4.282;2022-09-13T13:54:58;3.50;;;3.10;;
18905;SDS011;9585;51.018;4.282;2022-09-13T13:57:33;5.20;;;2.97;;
18905;SDS011;9585;51.018;4.282;2022-09-13T14:00:04;4.75;;;3.47;;
18905;SDS011;9585;51.018;4.282;2022-09-13T14:02:39;4.95;;;4.07;;
18905;SDS011;9585;51.018;4.282;2022-09-13T14:05:18;5.53;;;3.28;;
18905;SDS011;9585;51.018;4.282;2022-09-13T14:07:56;6.63;;;3.80;;
18905;SDS011;9585;51.018;4.282;2022-09-13T14:10:52;4.85;;;3.67;;
18905;SDS011;9585;51.018;4.282;2022-09-13T14:13:40;4.13;;;3.75;;
18905;SDS011;9585;51.018;4.282;2022-09-13T14:16:16;4.28;;;3.42;;
18905;SDS011;9585;51.018;4.282;2022-09-13T14:19:02;3.50;;;3.20;;
18905;SDS011;9585;51.018;4.282;2022-09-13T14:21:43;3.42;;;2.90;;
18905;SDS011;9585;51.018;4.282;2022-09-13T14:24:20;3.47;;;3.17;;
18905;SDS011;9585;51.018;4.282;2022-09-13T14:26:50;3.15;;;2.60;;
18905;SDS011;9585;51.018;4.282;2022-09-13T14:29:21;4.25;;;3.25;;
18905;SDS011;9585;51.018;4.282;2022-09-13T14:31:50;4.32;;;3.10;;
18905;SDS011;9585;51.018;4.282;2022-09-13T14:34:21;4.32;;;3.85;;
18905;SDS011;9585;51.018;4.282;2022-09-13T14:36:51;4.45;;;3.50;;
18905;SDS011;9585;51.018;4.282;2022-09-13T14:39:20;6.13;;;5.07;;
18905;SDS011;9585;51.018;4.282;2022-09-13T14:41:47;4.53;;;4.13;;
18905;SDS011;9585;51.018;4.282;2022-09-13T14:44:26;4.40;;;3.47;;
18905;SDS011;9585;51.018;4.282;2022-09-13T14:47:00;5.07;;;4.05;;
18905;SDS011;9585;51.018;4.282;2022-09-13T14:49:37;4.10;;;3.70;;
18905;SDS011;9585;51.018;4.282;2022-09-13T14:52:14;4.88;;;4.22;;
18905;SDS011;9585;51.018;4.282;2022-09-13T14:54:46;4.35;;;3.95;;
18905;SDS011;9585;51.018;4.282;2022-09-13T14:57:40;4.95;;;4.22;;
18905;SDS011;9585;51.018;4.282;2022-09-13T15:00:16;5.35;;;4.82;;
18905;SDS011;9585;51.018;4.282;2022-09-13T15:02:50;4.88;;;4.38;;
18905;SDS011;9585;51.018;4.282;2022-09-13T15:05:22;4.75;;;4.35;;
18905;SDS011;9585;51.018;4.282;2022-09-13T15:07:56;5.40;;;4.90;;
18905;SDS011;9585;51.018;4.282;2022-09-13T15:11:00;5.22;;;4.65;;
18905;SDS011;9585;51.018;4.282;2022-09-13T15:13:38;5.97;;;5.38;;
18905;SDS011;9585;51.018;4.282;2022-09-13T15:16:27;4.80;;;4.35;;
18905;SDS011;9585;51.018;4.282;2022-09-13T15:19:14;4.70;;;4.30;;
18905;SDS011;9585;51.018;4.282;2022-09-13T15:21:42;6.13;;;5.60;;
18905;SDS011;9585;51.018;4.282;2022-09-13T15:24:17;6.95;;;6.35;;
18905;SDS011;9585;51.018;4.282;2022-09-13T15:27:01;6.82;;;6.20;;
18905;SDS011;9585;51.018;4.282;2022-09-13T15:29:39;8.20;;;7.32;;
18905;SDS011;9585;51.018;4.282;2022-09-13T15:32:22;7.45;;;6.72;;
18905;SDS011;9585;51.018;4.282;2022-09-13T15:34:57;5.60;;;5.00;;
18905;SDS011;9585;51.018;4.282;2022-09-13T15:44:59;8.38;;;7.18;;
18905;SDS011;9585;51.018;4.282;2022-09-13T15:47:43;9.20;;;8.07;;
18905;SDS011;9585;51.018;4.282;2022-09-13T15:50:22;7.20;;;6.60;;
18905;SDS011;9585;51.018;4.282;2022-09-13T15:52:52;6.38;;;5.78;;
18905;SDS011;9585;51.018;4.282;2022-09-13T15:55:24;9.77;;;8.88;;
18905;SDS011;9585;51.018;4.282;2022-09-13T15:57:55;11.38;;;10.27;;
18905;SDS011;9585;51.018;4.282;2022-09-13T16:00:51;9.48;;;8.50;;
18905;SDS011;9585;51.018;4.282;2022-09-13T16:03:21;12.52;;;10.27;;
18905;SDS011;9585;51.018;4.282;2022-09-13T16:05:48;10.10;;;8.90;;
18905;SDS011;9585;51.018;4.282;2022-09-13T16:08:19;8.50;;;7.70;;
18905;SDS011;9585;51.018;4.282;2022-09-13T16:10:48;9.00;;;8.10;;
18905;SDS011;9585;51.018;4.282;2022-09-13T16:13:51;9.70;;;8.70;;
18905;SDS011;9585;51.018;4.282;2022-09-13T16:16:19;6.88;;;6.28;;
18905;SDS011;9585;51.018;4.282;2022-09-13T16:19:14;6.68;;;6.13;;
18905;SDS011;9585;51.018;4.282;2022-09-13T16:21:52;6.50;;;6.00;;
18905;SDS011;9585;51.018;4.282;2022-09-13T16:24:27;5.50;;;5.03;;